sensor_id;sensor_type;location;lat;lon;timestamp;temperature;humidity
69901;DHT22;57183;50.930;5.406;2023-02-12T00:01:22;8.60;99.90
69901;DHT22;57183;50.930;5.406;2023-02-12T00:03:48;8.60;99.90
69901;DHT22;57183;50.930;5.406;2023-02-12T00:06:14;8.60;99.90
69901;DHT22;57183;50.930;5.406;2023-02-12T00:08:40;8.60;99.90
69901;DHT22;57183;50.930;5.406;2023-02-12T00:11:12;8.50;99.90
69901;DHT22;57183;50.930;5.406;2023-02-12T00:13:38;8.50;99.90
69901;DHT22;57183;50.930;5.406;2023-02-12T00:16:09;8.40;99.90
69901;DHT22;57183;50.930;5.406;2023-02-12T00:18:35;8.60;99.90
69901;DHT22;57183;50.930;5.406;2023-02-12T00:21:01;8.60;99.90
69901;DHT22;57183;50.930;5.406;2023-02-12T00:23:27;8.60;99.90
69901;DHT22;57183;50.930;5.406;2023-02-12T00:25:55;8.50;99.90
69901;DHT22;57183;50.930;5.406;2023-02-12T00:28:21;8.60;99.90
69901;DHT22;57183;50.930;5.406;2023-02-12T00:30:47;8.50;99.90
69901;DHT22;57183;50.930;5.406;2023-02-12T00:33:13;8.40;99.90
69901;DHT22;57183;50.930;5.406;2023-02-12T00:35:38;8.40;99.90
69901;DHT22;57183;50.930;5.406;2023-02-12T00:38:04;8.40;99.90
69901;DHT22;57183;50.930;5.406;2023-02-12T00:40:30;8.30;99.90
69901;DHT22;57183;50.930;5.406;2023-02-12T00:42:55;8.30;99.90
69901;DHT22;57183;50.930;5.406;2023-02-12T00:45:21;8.20;99.90
69901;DHT22;57183;50.930;5.406;2023-02-12T00:47:47;8.20;99.90
69901;DHT22;57183;50.930;5.406;2023-02-12T00:50:12;8.10;99.90
69901;DHT22;57183;50.930;5.406;2023-02-12T00:52:38;8.20;99.90
69901;DHT22;57183;50.930;5.406;2023-02-12T00:55:04;8.20;99.90
69901;DHT22;57183;50.930;5.406;2023-02-12T00:57:30;8.20;99.90
69901;DHT22;57183;50.930;5.406;2023-02-12T00:59:58;8.30;99.90
69901;DHT22;57183;50.930;5.406;2023-02-12T01:02:23;8.30;99.90
69901;DHT22;57183;50.930;5.406;2023-02-12T01:04:53;8.40;99.90
69901;DHT22;57183;50.930;5.406;2023-02-12T01:07:18;8.40;99.90
69901;DHT22;57183;50.930;5.406;2023-02-12T01:09:44;8.50;99.90
69901;DHT22;57183;50.930;5.406;2023-02-12T01:12:10;8.50;99.90
69901;DHT22;57183;50.930;5.406;2023-02-12T01:14:36;8.50;99.90
69901;DHT22;57183;50.930;5.406;2023-02-12T01:17:01;8.60;99.90
69901;DHT22;57183;50.930;5.406;2023-02-12T01:19:27;8.70;99.90
69901;DHT22;57183;50.930;5.406;2023-02-12T01:21:53;8.80;99.90
69901;DHT22;57183;50.930;5.406;2023-02-12T01:24:18;8.70;99.90
69901;DHT22;57183;50.930;5.406;2023-02-12T01:26:44;8.70;99.90
69901;DHT22;57183;50.930;5.406;2023-02-12T01:29:10;8.70;99.90
69901;DHT22;57183;50.930;5.406;2023-02-12T01:31:37;8.70;99.90
69901;DHT22;57183;50.930;5.406;2023-02-12T01:34:05;8.70;99.90
69901;DHT22;57183;50.930;5.406;2023-02-12T01:36:31;8.70;99.90
69901;DHT22;57183;50.930;5.406;2023-02-12T01:38:57;8.50;99.90
69901;DHT22;57183;50.930;5.406;2023-02-12T01:41:33;8.40;99.90
69901;DHT22;57183;50.930;5.406;2023-02-12T01:44:12;8.30;99.90
69901;DHT22;57183;50.930;5.406;2023-02-12T01:46:40;8.40;99.90
69901;DHT22;57183;50.930;5.406;2023-02-12T01:49:15;8.40;99.90
69901;DHT22;57183;50.930;5.406;2023-02-12T01:51:42;8.30;99.90
69901;DHT22;57183;50.930;5.406;2023-02-12T01:54:11;8.20;99.90
69901;DHT22;57183;50.930;5.406;2023-02-12T01:56:38;8.50;99.90
69901;DHT22;57183;50.930;5.406;2023-02-12T01:59:04;8.70;99.90
69901;DHT22;57183;50.930;5.406;2023-02-12T02:01:31;8.90;99.90
69901;DHT22;57183;50.930;5.406;2023-02-12T02:04:18;8.80;99.90
69901;DHT22;57183;50.930;5.406;2023-02-12T02:07:00;8.60;99.90
69901;DHT22;57183;50.930;5.406;2023-02-12T02:09:29;8.30;99.90
69901;DHT22;57183;50.930;5.406;2023-02-12T02:11:55;8.00;99.90
69901;DHT22;57183;50.930;5.406;2023-02-12T02:14:41;7.90;99.90
69901;DHT22;57183;50.930;5.406;2023-02-12T02:36:58;8.30;99.90
69901;DHT22;57183;50.930;5.406;2023-02-12T02:39:46;8.20;99.90
69901;DHT22;57183;50.930;5.406;2023-02-12T02:42:34;8.20;99.90
69901;DHT22;57183;50.930;5.406;2023-02-12T02:50:20;8.10;99.90
69901;DHT22;57183;50.930;5.406;2023-02-12T02:55:30;8.40;99.90
69901;DHT22;57183;50.930;5.406;2023-02-12T02:58:09;8.40;99.90
69901;DHT22;57183;50.930;5.406;2023-02-12T03:00:43;8.20;99.90
69901;DHT22;57183;50.930;5.406;2023-02-12T03:03:21;8.10;99.90
69901;DHT22;57183;50.930;5.406;2023-02-12T03:05:51;8.10;99.90
69901;DHT22;57183;50.930;5.406;2023-02-12T03:08:51;8.20;99.90
69901;DHT22;57183;50.930;5.406;2023-02-12T03:11:29;8.30;99.90
69901;DHT22;57183;50.930;5.406;2023-02-12T03:16:57;8.10;99.90
69901;DHT22;57183;50.930;5.406;2023-02-12T03:19:26;8.10;99.90
69901;DHT22;57183;50.930;5.406;2023-02-12T03:22:03;8.10;99.90
69901;DHT22;57183;50.930;5.406;2023-02-12T03:24:35;8.00;99.90
69901;DHT22;57183;50.930;5.406;2023-02-12T03:27:20;8.00;99.90
69901;DHT22;57183;50.930;5.406;2023-02-12T03:29:47;8.00;99.90
69901;DHT22;57183;50.930;5.406;2023-02-12T03:40:27;8.70;99.90
69901;DHT22;57183;50.930;5.406;2023-02-12T03:43:03;8.30;99.90
69901;DHT22;57183;50.930;5.406;2023-02-12T03:53:08;8.20;99.90
69901;DHT22;57183;50.930;5.406;2023-02-12T03:55:37;8.10;99.90
69901;DHT22;57183;50.930;5.406;2023-02-12T03:58:07;8.40;99.90
69901;DHT22;57183;50.930;5.406;2023-02-12T04:00:34;8.50;99.90
69901;DHT22;57183;50.930;5.406;2023-02-12T04:03:03;8.60;99.90
69901;DHT22;57183;50.930;5.406;2023-02-12T04:05:29;8.70;99.90
69901;DHT22;57183;50.930;5.406;2023-02-12T04:07:56;8.40;99.90
69901;DHT22;57183;50.930;5.406;2023-02-12T04:10:37;8.40;99.90
69901;DHT22;57183;50.930;5.406;2023-02-12T04:13:28;8.60;99.90
69901;DHT22;57183;50.930;5.406;2023-02-12T04:16:23;8.50;99.90
69901;DHT22;57183;50.930;5.406;2023-02-12T04:18:50;8.30;99.90
69901;DHT22;57183;50.930;5.406;2023-02-12T04:24:24;8.30;99.90
69901;DHT22;57183;50.930;5.406;2023-02-12T04:27:03;8.30;99.90
69901;DHT22;57183;50.930;5.406;2023-02-12T04:29:50;8.20;99.90
69901;DHT22;57183;50.930;5.406;2023-02-12T04:38:23;8.10;99.90
69901;DHT22;57183;50.930;5.406;2023-02-12T04:40:51;8.20;99.90
69901;DHT22;57183;50.930;5.406;2023-02-12T04:43:29;8.50;99.90
69901;DHT22;57183;50.930;5.406;2023-02-12T04:45:54;8.50;99.90
69901;DHT22;57183;50.930;5.406;2023-02-12T04:48:20;8.60;99.90
69901;DHT22;57183;50.930;5.406;2023-02-12T04:50:46;8.70;99.90
69901;DHT22;57183;50.930;5.406;2023-02-12T04:53:13;8.30;99.90
69901;DHT22;57183;50.930;5.406;2023-02-12T04:55:39;8.00;99.90
69901;DHT22;57183;50.930;5.406;2023-02-12T04:58:05;8.00;99.90
69901;DHT22;57183;50.930;5.406;2023-02-12T05:00:31;8.20;99.90
69901;DHT22;57183;50.930;5.406;2023-02-12T05:02:57;8.20;99.90
69901;DHT22;57183;50.930;5.406;2023-02-12T05:05:23;8.10;99.90
69901;DHT22;57183;50.930;5.406;2023-02-12T05:07:49;8.10;99.90
69901;DHT22;57183;50.930;5.406;2023-02-12T05:10:15;8.10;99.90
69901;DHT22;57183;50.930;5.406;2023-02-12T05:12:42;8.10;99.90
69901;DHT22;57183;50.930;5.406;2023-02-12T05:15:08;8.20;99.90
69901;DHT22;57183;50.930;5.406;2023-02-12T05:17:34;8.40;99.90
69901;DHT22;57183;50.930;5.406;2023-02-12T05:20:00;8.30;99.90
69901;DHT22;57183;50.930;5.406;2023-02-12T05:22:26;8.30;99.90
69901;DHT22;57183;50.930;5.406;2023-02-12T05:24:51;8.30;99.90
69901;DHT22;57183;50.930;5.406;2023-02-12T05:27:17;8.40;99.90
69901;DHT22;57183;50.930;5.406;2023-02-12T05:29:43;8.40;99.90
69901;DHT22;57183;50.930;5.406;2023-02-12T05:32:08;8.50;99.90
69901;DHT22;57183;50.930;5.406;2023-02-12T05:34:35;8.50;99.90
69901;DHT22;57183;50.930;5.406;2023-02-12T05:37:01;8.50;99.90
69901;DHT22;57183;50.930;5.406;2023-02-12T05:39:27;8.40;99.90
69901;DHT22;57183;50.930;5.406;2023-02-12T05:41:53;8.00;99.90
69901;DHT22;57183;50.930;5.406;2023-02-12T05:44:19;7.90;99.90
69901;DHT22;57183;50.930;5.406;2023-02-12T05:46:44;8.00;99.90
69901;DHT22;57183;50.930;5.406;2023-02-12T05:49:10;8.10;99.90
69901;DHT22;57183;50.930;5.406;2023-02-12T05:51:36;8.10;99.90
69901;DHT22;57183;50.930;5.406;2023-02-12T05:54:04;8.10;99.90
69901;DHT22;57183;50.930;5.406;2023-02-12T05:56:35;8.30;99.90
69901;DHT22;57183;50.930;5.406;2023-02-12T05:59:05;8.30;99.90
69901;DHT22;57183;50.930;5.406;2023-02-12T06:01:38;8.20;99.90
69901;DHT22;57183;50.930;5.406;2023-02-12T06:04:11;8.20;99.90
69901;DHT22;57183;50.930;5.406;2023-02-12T06:06:40;8.00;99.90
69901;DHT22;57183;50.930;5.406;2023-02-12T06:09:07;7.70;99.90
69901;DHT22;57183;50.930;5.406;2023-02-12T06:11:33;7.90;99.90
69901;DHT22;57183;50.930;5.406;2023-02-12T06:14:04;8.00;99.90
69901;DHT22;57183;50.930;5.406;2023-02-12T06:16:30;8.20;99.90
69901;DHT22;57183;50.930;5.406;2023-02-12T06:18:56;8.30;99.90
69901;DHT22;57183;50.930;5.406;2023-02-12T06:21:24;8.30;99.90
69901;DHT22;57183;50.930;5.406;2023-02-12T06:23:50;8.20;99.90
69901;DHT22;57183;50.930;5.406;2023-02-12T06:26:16;7.90;99.90
69901;DHT22;57183;50.930;5.406;2023-02-12T06:28:43;8.00;99.90
69901;DHT22;57183;50.930;5.406;2023-02-12T06:31:20;8.10;99.90
69901;DHT22;57183;50.930;5.406;2023-02-12T06:33:46;8.10;99.90
69901;DHT22;57183;50.930;5.406;2023-02-12T06:36:12;8.30;99.90
69901;DHT22;57183;50.930;5.406;2023-02-12T06:38:38;8.20;99.90
69901;DHT22;57183;50.930;5.406;2023-02-12T06:41:04;8.20;99.90
69901;DHT22;57183;50.930;5.406;2023-02-12T06:43:29;8.20;99.90
69901;DHT22;57183;50.930;5.406;2023-02-12T06:45:58;8.10;99.90
69901;DHT22;57183;50.930;5.406;2023-02-12T06:48:24;8.00;99.90
69901;DHT22;57183;50.930;5.406;2023-02-12T06:50:50;8.10;99.90
69901;DHT22;57183;50.930;5.406;2023-02-12T06:53:15;8.00;99.90
69901;DHT22;57183;50.930;5.406;2023-02-12T06:55:41;8.10;99.90
69901;DHT22;57183;50.930;5.406;2023-02-12T06:58:07;8.10;99.90
69901;DHT22;57183;50.930;5.406;2023-02-12T07:00:32;8.20;99.90
69901;DHT22;57183;50.930;5.406;2023-02-12T07:02:58;8.20;99.90
69901;DHT22;57183;50.930;5.406;2023-02-12T07:05:23;8.10;99.90
69901;DHT22;57183;50.930;5.406;2023-02-12T07:07:50;8.20;99.90
69901;DHT22;57183;50.930;5.406;2023-02-12T07:10:17;8.30;99.90
69901;DHT22;57183;50.930;5.406;2023-02-12T07:12:42;8.20;99.90
69901;DHT22;57183;50.930;5.406;2023-02-12T07:15:08;8.00;99.90
69901;DHT22;57183;50.930;5.406;2023-02-12T07:17:34;8.10;99.90
69901;DHT22;57183;50.930;5.406;2023-02-12T07:20:02;8.00;99.90
69901;DHT22;57183;50.930;5.406;2023-02-12T07:22:28;7.80;99.90
69901;DHT22;57183;50.930;5.406;2023-02-12T07:24:54;7.90;99.90
69901;DHT22;57183;50.930;5.406;2023-02-12T07:27:19;8.00;99.90
69901;DHT22;57183;50.930;5.406;2023-02-12T07:29:45;8.00;99.90
69901;DHT22;57183;50.930;5.406;2023-02-12T07:32:11;8.10;99.90
69901;DHT22;57183;50.930;5.406;2023-02-12T07:34:37;8.20;99.90
69901;DHT22;57183;50.930;5.406;2023-02-12T07:37:02;8.10;99.90
69901;DHT22;57183;50.930;5.406;2023-02-12T07:39:28;8.30;99.90
69901;DHT22;57183;50.930;5.406;2023-02-12T07:41:55;8.50;99.90
69901;DHT22;57183;50.930;5.406;2023-02-12T07:44:21;8.50;99.90
69901;DHT22;57183;50.930;5.406;2023-02-12T07:46:48;8.60;99.90
69901;DHT22;57183;50.930;5.406;2023-02-12T07:49:19;8.50;99.90
69901;DHT22;57183;50.930;5.406;2023-02-12T07:51:46;8.50;99.90
69901;DHT22;57183;50.930;5.406;2023-02-12T07:54:13;8.50;99.90
69901;DHT22;57183;50.930;5.406;2023-02-12T07:56:40;8.60;99.90
69901;DHT22;57183;50.930;5.406;2023-02-12T07:59:10;8.60;99.90
69901;DHT22;57183;50.930;5.406;2023-02-12T08:01:45;8.60;99.90
69901;DHT22;57183;50.930;5.406;2023-02-12T08:04:13;8.60;99.90
69901;DHT22;57183;50.930;5.406;2023-02-12T08:06:44;8.60;99.90
69901;DHT22;57183;50.930;5.406;2023-02-12T08:09:13;8.50;99.90
69901;DHT22;57183;50.930;5.406;2023-02-12T08:11:40;8.50;99.90
69901;DHT22;57183;50.930;5.406;2023-02-12T08:14:07;8.60;99.90
69901;DHT22;57183;50.930;5.406;2023-02-12T08:16:36;8.70;99.90
69901;DHT22;57183;50.930;5.406;2023-02-12T08:19:03;8.60;99.90
69901;DHT22;57183;50.930;5.406;2023-02-12T08:21:29;8.60;99.90
69901;DHT22;57183;50.930;5.406;2023-02-12T08:23:57;8.80;99.90
69901;DHT22;57183;50.930;5.406;2023-02-12T08:29:04;9.00;99.90
69901;DHT22;57183;50.930;5.406;2023-02-12T08:31:54;9.00;99.90
69901;DHT22;57183;50.930;5.406;2023-02-12T08:34:25;8.90;99.90
69901;DHT22;57183;50.930;5.406;2023-02-12T08:36:52;8.80;99.90
69901;DHT22;57183;50.930;5.406;2023-02-12T08:39:19;8.70;99.90
69901;DHT22;57183;50.930;5.406;2023-02-12T08:41:45;8.90;99.90
69901;DHT22;57183;50.930;5.406;2023-02-12T08:44:12;8.90;99.90
69901;DHT22;57183;50.930;5.406;2023-02-12T08:46:41;9.00;99.90
69901;DHT22;57183;50.930;5.406;2023-02-12T08:49:11;9.10;99.90
69901;DHT22;57183;50.930;5.406;2023-02-12T08:51:40;9.10;99.90
69901;DHT22;57183;50.930;5.406;2023-02-12T08:54:09;9.20;99.90
69901;DHT22;57183;50.930;5.406;2023-02-12T08:56:35;9.20;99.90
69901;DHT22;57183;50.930;5.406;2023-02-12T08:59:04;9.20;99.90
69901;DHT22;57183;50.930;5.406;2023-02-12T09:01:32;9.30;99.90
69901;DHT22;57183;50.930;5.406;2023-02-12T09:03:59;9.30;99.90
69901;DHT22;57183;50.930;5.406;2023-02-12T09:06:26;9.40;99.90
69901;DHT22;57183;50.930;5.406;2023-02-12T09:08:53;9.20;99.90
69901;DHT22;57183;50.930;5.406;2023-02-12T09:11:24;9.30;99.90
69901;DHT22;57183;50.930;5.406;2023-02-12T09:13:59;9.40;99.90
69901;DHT22;57183;50.930;5.406;2023-02-12T09:16:27;9.50;99.90
69901;DHT22;57183;50.930;5.406;2023-02-12T09:18:53;9.60;99.90
69901;DHT22;57183;50.930;5.406;2023-02-12T09:21:20;9.50;99.90
69901;DHT22;57183;50.930;5.406;2023-02-12T09:23:46;9.50;99.90
69901;DHT22;57183;50.930;5.406;2023-02-12T09:26:15;9.60;99.90
69901;DHT22;57183;50.930;5.406;2023-02-12T09:28:41;9.60;99.90
69901;DHT22;57183;50.930;5.406;2023-02-12T09:31:12;9.60;99.90
69901;DHT22;57183;50.930;5.406;2023-02-12T09:33:38;9.60;99.90
69901;DHT22;57183;50.930;5.406;2023-02-12T09:36:07;9.60;99.90
69901;DHT22;57183;50.930;5.406;2023-02-12T09:38:33;9.60;99.90
69901;DHT22;57183;50.930;5.406;2023-02-12T09:41:22;9.60;99.90
69901;DHT22;57183;50.930;5.406;2023-02-12T09:44:05;9.70;99.90
69901;DHT22;57183;50.930;5.406;2023-02-12T09:46:38;9.70;99.90
69901;DHT22;57183;50.930;5.406;2023-02-12T09:51:37;9.90;99.90
69901;DHT22;57183;50.930;5.406;2023-02-12T09:54:14;9.90;99.90
69901;DHT22;57183;50.930;5.406;2023-02-12T09:56:43;9.90;99.90
69901;DHT22;57183;50.930;5.406;2023-02-12T09:59:13;9.90;99.90
69901;DHT22;57183;50.930;5.406;2023-02-12T10:01:42;10.00;99.90
69901;DHT22;57183;50.930;5.406;2023-02-12T10:04:07;10.00;99.90
69901;DHT22;57183;50.930;5.406;2023-02-12T10:06:47;10.00;99.90
69901;DHT22;57183;50.930;5.406;2023-02-12T10:09:33;10.10;99.90
69901;DHT22;57183;50.930;5.406;2023-02-12T10:12:30;10.20;99.90
69901;DHT22;57183;50.930;5.406;2023-02-12T10:14:56;10.40;99.90
69901;DHT22;57183;50.930;5.406;2023-02-12T10:17:29;10.50;99.90
69901;DHT22;57183;50.930;5.406;2023-02-12T10:25:55;10.50;99.90
69901;DHT22;57183;50.930;5.406;2023-02-12T10:28:33;10.60;99.90
69901;DHT22;57183;50.930;5.406;2023-02-12T10:31:03;10.60;99.90
69901;DHT22;57183;50.930;5.406;2023-02-12T10:39:25;10.60;99.90
69901;DHT22;57183;50.930;5.406;2023-02-12T10:41:54;10.60;99.90
69901;DHT22;57183;50.930;5.406;2023-02-12T10:44:20;10.70;99.90
69901;DHT22;57183;50.930;5.406;2023-02-12T10:46:46;10.70;99.90
69901;DHT22;57183;50.930;5.406;2023-02-12T10:49:15;10.80;99.90
69901;DHT22;57183;50.930;5.406;2023-02-12T10:54:34;11.00;99.90
69901;DHT22;57183;50.930;5.406;2023-02-12T10:57:22;11.10;99.90
69901;DHT22;57183;50.930;5.406;2023-02-12T10:59:50;11.00;99.90
69901;DHT22;57183;50.930;5.406;2023-02-12T11:02:27;11.20;99.90
69901;DHT22;57183;50.930;5.406;2023-02-12T11:04:54;11.30;99.90
69901;DHT22;57183;50.930;5.406;2023-02-12T11:07:21;11.30;99.90
69901;DHT22;57183;50.930;5.406;2023-02-12T11:09:49;11.20;99.90
69901;DHT22;57183;50.930;5.406;2023-02-12T11:14:54;11.20;99.90
69901;DHT22;57183;50.930;5.406;2023-02-12T11:17:39;11.10;99.90
69901;DHT22;57183;50.930;5.406;2023-02-12T11:20:07;11.10;99.90
69901;DHT22;57183;50.930;5.406;2023-02-12T11:22:50;11.20;99.90
69901;DHT22;57183;50.930;5.406;2023-02-12T11:25:17;11.10;99.90
69901;DHT22;57183;50.930;5.406;2023-02-12T11:27:43;11.30;99.90
69901;DHT22;57183;50.930;5.406;2023-02-12T11:30:20;11.50;99.90
69901;DHT22;57183;50.930;5.406;2023-02-12T11:32:45;11.30;99.90
69901;DHT22;57183;50.930;5.406;2023-02-12T11:35:19;11.20;99.90
69901;DHT22;57183;50.930;5.406;2023-02-12T11:38:02;11.20;99.90
69901;DHT22;57183;50.930;5.406;2023-02-12T11:40:31;11.30;99.90
69901;DHT22;57183;50.930;5.406;2023-02-12T11:43:03;11.40;99.90
69901;DHT22;57183;50.930;5.406;2023-02-12T11:48:41;11.50;99.90
69901;DHT22;57183;50.930;5.406;2023-02-12T11:51:08;11.50;99.90
69901;DHT22;57183;50.930;5.406;2023-02-12T11:53:47;11.70;99.90
69901;DHT22;57183;50.930;5.406;2023-02-12T11:56:14;11.70;99.90
69901;DHT22;57183;50.930;5.406;2023-02-12T11:58:40;11.70;99.90
69901;DHT22;57183;50.930;5.406;2023-02-12T12:01:17;11.70;99.90
69901;DHT22;57183;50.930;5.406;2023-02-12T12:09:28;11.60;99.90
69901;DHT22;57183;50.930;5.406;2023-02-12T12:12:15;11.50;99.90
69901;DHT22;57183;50.930;5.406;2023-02-12T12:14:46;11.50;99.90
69901;DHT22;57183;50.930;5.406;2023-02-12T12:21:21;11.60;99.90
69901;DHT22;57183;50.930;5.406;2023-02-12T12:23:56;11.70;99.90
69901;DHT22;57183;50.930;5.406;2023-02-12T12:26:33;11.70;99.90
69901;DHT22;57183;50.930;5.406;2023-02-12T12:29:09;11.80;99.90
69901;DHT22;57183;50.930;5.406;2023-02-12T12:31:41;11.90;99.90
69901;DHT22;57183;50.930;5.406;2023-02-12T12:34:21;11.80;99.90
69901;DHT22;57183;50.930;5.406;2023-02-12T12:48:37;12.20;99.90
69901;DHT22;57183;50.930;5.406;2023-02-12T12:54:12;12.00;99.90
69901;DHT22;57183;50.930;5.406;2023-02-12T13:10:49;11.90;99.90
69901;DHT22;57183;50.930;5.406;2023-02-12T13:13:37;12.00;99.90
69901;DHT22;57183;50.930;5.406;2023-02-12T13:27:05;11.70;99.90
69901;DHT22;57183;50.930;5.406;2023-02-12T13:29:39;11.80;99.90
69901;DHT22;57183;50.930;5.406;2023-02-12T13:32:29;11.90;99.90
69901;DHT22;57183;50.930;5.406;2023-02-12T13:34:58;12.10;99.90
69901;DHT22;57183;50.930;5.406;2023-02-12T13:37:35;12.10;99.90
69901;DHT22;57183;50.930;5.406;2023-02-12T13:40:06;12.10;99.90
69901;DHT22;57183;50.930;5.406;2023-02-12T13:45:22;12.00;99.90
69901;DHT22;57183;50.930;5.406;2023-02-12T13:48:19;11.60;99.90
69901;DHT22;57183;50.930;5.406;2023-02-12T13:56:41;11.70;99.90
69901;DHT22;57183;50.930;5.406;2023-02-12T13:59:47;11.80;99.90
69901;DHT22;57183;50.930;5.406;2023-02-12T14:05:13;11.80;99.90
69901;DHT22;57183;50.930;5.406;2023-02-12T14:07:43;11.60;99.90
69901;DHT22;57183;50.930;5.406;2023-02-12T14:12:48;11.70;99.90
69901;DHT22;57183;50.930;5.406;2023-02-12T14:15:34;11.80;99.90
69901;DHT22;57183;50.930;5.406;2023-02-12T14:18:20;11.70;99.90
69901;DHT22;57183;50.930;5.406;2023-02-12T14:20:46;11.80;99.90
69901;DHT22;57183;50.930;5.406;2023-02-12T14:23:30;11.80;99.90
69901;DHT22;57183;50.930;5.406;2023-02-12T14:26:01;11.90;99.90
69901;DHT22;57183;50.930;5.406;2023-02-12T14:31:29;11.30;99.90
69901;DHT22;57183;50.930;5.406;2023-02-12T14:39:03;11.30;99.90
69901;DHT22;57183;50.930;5.406;2023-02-12T14:41:36;11.40;99.90
69901;DHT22;57183;50.930;5.406;2023-02-12T14:46:59;11.10;99.90
69901;DHT22;57183;50.930;5.406;2023-02-12T14:49:47;11.00;99.90
69901;DHT22;57183;50.930;5.406;2023-02-12T14:52:20;11.20;99.90
69901;DHT22;57183;50.930;5.406;2023-02-12T14:54:53;11.10;99.90
69901;DHT22;57183;50.930;5.406;2023-02-12T14:59:58;11.30;99.90
69901;DHT22;57183;50.930;5.406;2023-02-12T15:02:28;11.30;99.90
69901;DHT22;57183;50.930;5.406;2023-02-12T15:05:01;11.50;99.90
69901;DHT22;57183;50.930;5.406;2023-02-12T15:07:43;11.50;99.90
69901;DHT22;57183;50.930;5.406;2023-02-12T15:10:22;11.50;99.90
69901;DHT22;57183;50.930;5.406;2023-02-12T15:13:40;11.40;99.90
69901;DHT22;57183;50.930;5.406;2023-02-12T15:18:52;11.10;99.90
69901;DHT22;57183;50.930;5.406;2023-02-12T15:21:22;11.20;99.90
69901;DHT22;57183;50.930;5.406;2023-02-12T15:24:06;11.20;99.90
69901;DHT22;57183;50.930;5.406;2023-02-12T15:26:43;11.10;99.90
69901;DHT22;57183;50.930;5.406;2023-02-12T15:31:56;11.10;99.90
69901;DHT22;57183;50.930;5.406;2023-02-12T15:34:26;10.90;99.90
69901;DHT22;57183;50.930;5.406;2023-02-12T15:36:55;11.00;99.90
69901;DHT22;57183;50.930;5.406;2023-02-12T15:39:23;10.90;99.90
69901;DHT22;57183;50.930;5.406;2023-02-12T15:41:49;10.80;99.90
69901;DHT22;57183;50.930;5.406;2023-02-12T15:44:19;10.80;99.90
69901;DHT22;57183;50.930;5.406;2023-02-12T15:49:30;10.60;99.90
69901;DHT22;57183;50.930;5.406;2023-02-12T15:51:57;10.60;99.90
69901;DHT22;57183;50.930;5.406;2023-02-12T15:54:24;10.50;99.90
69901;DHT22;57183;50.930;5.406;2023-02-12T15:56:52;10.40;99.90
69901;DHT22;57183;50.930;5.406;2023-02-12T15:59:21;10.60;99.90
69901;DHT22;57183;50.930;5.406;2023-02-12T16:01:59;10.60;99.90
69901;DHT22;57183;50.930;5.406;2023-02-12T16:04:29;10.70;99.90
69901;DHT22;57183;50.930;5.406;2023-02-12T16:06:57;10.80;99.90
69901;DHT22;57183;50.930;5.406;2023-02-12T16:09:31;10.80;99.90
69901;DHT22;57183;50.930;5.406;2023-02-12T16:12:02;10.90;99.90
69901;DHT22;57183;50.930;5.406;2023-02-12T16:14:38;10.80;99.90
69901;DHT22;57183;50.930;5.406;2023-02-12T16:17:26;10.70;99.90
69901;DHT22;57183;50.930;5.406;2023-02-12T16:20:21;10.40;99.90
69901;DHT22;57183;50.930;5.406;2023-02-12T16:22:48;10.50;99.90
69901;DHT22;57183;50.930;5.406;2023-02-12T16:25:17;10.50;99.90
69901;DHT22;57183;50.930;5.406;2023-02-12T16:30:23;10.10;99.90
69901;DHT22;57183;50.930;5.406;2023-02-12T16:32:50;10.00;99.90
69901;DHT22;57183;50.930;5.406;2023-02-12T16:37:47;10.40;99.90
69901;DHT22;57183;50.930;5.406;2023-02-12T16:48:01;10.50;99.90
69901;DHT22;57183;50.930;5.406;2023-02-12T16:50:31;10.30;99.90
69901;DHT22;57183;50.930;5.406;2023-02-12T16:53:07;10.20;99.90
69901;DHT22;57183;50.930;5.406;2023-02-12T16:55:46;10.10;99.90
69901;DHT22;57183;50.930;5.406;2023-02-12T16:58:12;10.00;99.90
69901;DHT22;57183;50.930;5.406;2023-02-12T17:00:38;9.90;99.90
69901;DHT22;57183;50.930;5.406;2023-02-12T17:03:04;9.80;99.90
69901;DHT22;57183;50.930;5.406;2023-02-12T17:05:29;9.90;99.90
69901;DHT22;57183;50.930;5.406;2023-02-12T17:07:55;10.20;99.90
69901;DHT22;57183;50.930;5.406;2023-02-12T17:10:21;10.10;99.90
69901;DHT22;57183;50.930;5.406;2023-02-12T17:12:52;10.20;99.90
69901;DHT22;57183;50.930;5.406;2023-02-12T17:15:29;10.30;99.90
69901;DHT22;57183;50.930;5.406;2023-02-12T17:17:57;10.30;99.90
69901;DHT22;57183;50.930;5.406;2023-02-12T17:20:22;10.30;99.90
69901;DHT22;57183;50.930;5.406;2023-02-12T17:22:50;10.10;99.90
69901;DHT22;57183;50.930;5.406;2023-02-12T17:25:17;10.10;99.90
69901;DHT22;57183;50.930;5.406;2023-02-12T17:27:43;10.10;99.90
69901;DHT22;57183;50.930;5.406;2023-02-12T17:30:19;9.90;99.90
69901;DHT22;57183;50.930;5.406;2023-02-12T17:32:53;10.00;99.90
69901;DHT22;57183;50.930;5.406;2023-02-12T17:35:19;10.00;99.90
69901;DHT22;57183;50.930;5.406;2023-02-12T17:37:44;10.00;99.90
69901;DHT22;57183;50.930;5.406;2023-02-12T17:40:12;10.20;99.90
69901;DHT22;57183;50.930;5.406;2023-02-12T17:42:38;10.20;99.90
69901;DHT22;57183;50.930;5.406;2023-02-12T17:45:04;10.30;99.90
69901;DHT22;57183;50.930;5.406;2023-02-12T17:47:30;10.30;99.90
69901;DHT22;57183;50.930;5.406;2023-02-12T17:49:56;10.40;99.90
69901;DHT22;57183;50.930;5.406;2023-02-12T17:52:22;10.30;99.90
69901;DHT22;57183;50.930;5.406;2023-02-12T17:54:47;10.20;99.90
69901;DHT22;57183;50.930;5.406;2023-02-12T17:57:13;10.00;99.90
69901;DHT22;57183;50.930;5.406;2023-02-12T17:59:40;10.00;99.90
69901;DHT22;57183;50.930;5.406;2023-02-12T18:02:06;10.00;99.90
69901;DHT22;57183;50.930;5.406;2023-02-12T18:04:32;10.00;99.90
69901;DHT22;57183;50.930;5.406;2023-02-12T18:07:01;10.00;99.90
69901;DHT22;57183;50.930;5.406;2023-02-12T18:09:26;9.90;99.90
69901;DHT22;57183;50.930;5.406;2023-02-12T18:11:52;9.90;99.90
69901;DHT22;57183;50.930;5.406;2023-02-12T18:14:18;9.80;99.90
69901;DHT22;57183;50.930;5.406;2023-02-12T18:16:44;9.90;99.90
69901;DHT22;57183;50.930;5.406;2023-02-12T18:19:09;9.90;99.90
69901;DHT22;57183;50.930;5.406;2023-02-12T18:21:35;9.70;99.90
69901;DHT22;57183;50.930;5.406;2023-02-12T18:24:02;9.70;99.90
69901;DHT22;57183;50.930;5.406;2023-02-12T18:26:27;9.60;99.90
69901;DHT22;57183;50.930;5.406;2023-02-12T18:28:56;9.70;99.90
69901;DHT22;57183;50.930;5.406;2023-02-12T18:31:23;9.50;99.90
69901;DHT22;57183;50.930;5.406;2023-02-12T18:33:49;9.20;99.90
69901;DHT22;57183;50.930;5.406;2023-02-12T18:36:17;9.30;99.90
69901;DHT22;57183;50.930;5.406;2023-02-12T18:38:45;9.40;99.90
69901;DHT22;57183;50.930;5.406;2023-02-12T18:41:20;9.20;99.90
69901;DHT22;57183;50.930;5.406;2023-02-12T18:43:47;8.90;99.90
69901;DHT22;57183;50.930;5.406;2023-02-12T18:46:22;8.70;99.90
69901;DHT22;57183;50.930;5.406;2023-02-12T18:48:48;8.70;99.90
69901;DHT22;57183;50.930;5.406;2023-02-12T18:51:17;8.80;99.90
69901;DHT22;57183;50.930;5.406;2023-02-12T18:53:43;8.70;99.90
69901;DHT22;57183;50.930;5.406;2023-02-12T18:56:11;8.60;99.90
69901;DHT22;57183;50.930;5.406;2023-02-12T18:58:37;8.50;99.90